AIQ919 WIII-VTSP
Flight info
| Callsign | AIQ919 |
|---|---|
| Flight time | 2h 25m |
| Altitude | 36000 |
| Route | RIMTI W11 TKG G209 PLB A585 PKU/N0453F370 N633 VKL/N0453F360 DCT OGANA Y501 VIH R325 RINBA Y502 GUTEB DCT DUBAX R325 URGAD URGAD1D |
| Aircraft | A21N/M-SDE2E3FGHIRWXY/LB1 |
Departure
| Time | 2026-04-29 08:24 |
|---|---|
| Airport | Soekarno-Hatta International Airport (WIII) |
Arrival
| Time | 2026-04-29 10:50 |
|---|---|
| Airport | Phuket International Airport (VTSP) |
| Time | Latitude | Longitude | Altitude | Speed | Heading |
|---|---|---|---|---|---|
| 2026-04-29 07:58 | -6.13086 | 106.65148 | 26 ft | 0 kts | 97° |
| 2026-04-29 08:12 | -6.13086 | 106.65144 | 39 ft | 1 kts | 97° |
| 2026-04-29 08:12 | -6.13085 | 106.65138 | 39 ft | 1 kts | 96° |
| 2026-04-29 08:12 | -6.13084 | 106.65130 | 39 ft | 1 kts | 95° |
| 2026-04-29 08:12 | -6.13083 | 106.65122 | 39 ft | 1 kts | 94° |
| 2026-04-29 08:13 | -6.13083 | 106.65115 | 39 ft | 1 kts | 93° |
| 2026-04-29 08:13 | -6.13082 | 106.65103 | 39 ft | 2 kts | 92° |
| 2026-04-29 08:13 | -6.13082 | 106.65088 | 39 ft | 2 kts | 63° |
| 2026-04-29 08:13 | -6.13091 | 106.65076 | 37 ft | 2 kts | 26° |
| 2026-04-29 08:14 | -6.13105 | 106.65071 | 35 ft | 2 kts | 9° |
| 2026-04-29 08:14 | -6.13119 | 106.65068 | 39 ft | 2 kts | 7° |
| 2026-04-29 08:14 | -6.13134 | 106.65067 | 36 ft | 2 kts | 4° |
| 2026-04-29 08:14 | -6.13143 | 106.65066 | 38 ft | 0 kts | 2° |
| 2026-04-29 08:17 | -6.13142 | 106.65066 | 38 ft | 1 kts | 1° |
| 2026-04-29 08:17 | -6.13136 | 106.65060 | 36 ft | 0 kts | 325° |
| 2026-04-29 08:18 | -6.13135 | 106.65059 | 36 ft | 2 kts | 322° |
| 2026-04-29 08:18 | -6.13113 | 106.65038 | 39 ft | 7 kts | 315° |
| 2026-04-29 08:18 | -6.13090 | 106.64986 | 39 ft | 10 kts | 279° |
| 2026-04-29 08:18 | -6.13113 | 106.64916 | 40 ft | 12 kts | 245° |
| 2026-04-29 08:19 | -6.13135 | 106.64826 | 40 ft | 14 kts | 277° |
| 2026-04-29 08:19 | -6.13054 | 106.64773 | 38 ft | 15 kts | 340° |
| 2026-04-29 08:19 | -6.12946 | 106.64733 | 39 ft | 17 kts | 337° |
| 2026-04-29 08:19 | -6.12827 | 106.64684 | 39 ft | 19 kts | 336° |
| 2026-04-29 08:20 | -6.12694 | 106.64635 | 38 ft | 21 kts | 341° |
| 2026-04-29 08:20 | -6.12554 | 106.64574 | 38 ft | 23 kts | 337° |
| 2026-04-29 08:20 | -6.12405 | 106.64518 | 37 ft | 24 kts | 338° |
| 2026-04-29 08:20 | -6.12251 | 106.64459 | 37 ft | 20 kts | 338° |
| 2026-04-29 08:21 | -6.12160 | 106.64422 | 37 ft | 14 kts | 339° |
| 2026-04-29 08:21 | -6.12098 | 106.64353 | 37 ft | 14 kts | 264° |
| 2026-04-29 08:21 | -6.12141 | 106.64252 | 37 ft | 17 kts | 247° |
| 2026-04-29 08:21 | -6.12189 | 106.64131 | 36 ft | 20 kts | 247° |
| 2026-04-29 08:22 | -6.12243 | 106.63995 | 38 ft | 19 kts | 249° |
| 2026-04-29 08:22 | -6.12233 | 106.63892 | 38 ft | 3 kts | 316° |
| 2026-04-29 08:22 | -6.12216 | 106.63884 | 39 ft | 0 kts | 335° |
| 2026-04-29 08:23 | -6.12202 | 106.63880 | 39 ft | 6 kts | 345° |
| 2026-04-29 08:23 | -6.12126 | 106.63900 | 39 ft | 17 kts | 29° |
| 2026-04-29 08:23 | -6.12035 | 106.64025 | 37 ft | 38 kts | 66° |
| 2026-04-29 08:24 | -6.11837 | 106.64518 | 37 ft | 110 kts | 69° |
| 2026-04-29 08:24 | -6.11481 | 106.65415 | 36 ft | 164 kts | 68° |
| 2026-04-29 08:24 | -6.11081 | 106.66494 | 654 ft | 161 kts | 68° |
| 2026-04-29 08:24 | -6.10673 | 106.67562 | 1264 ft | 168 kts | 67° |
| 2026-04-29 08:25 | -6.10111 | 106.68567 | 2029 ft | 169 kts | 47° |
| 2026-04-29 08:25 | -6.09088 | 106.69294 | 2499 ft | 191 kts | 31° |
| 2026-04-29 08:25 | -6.07872 | 106.69997 | 2976 ft | 211 kts | 32° |
| 2026-04-29 08:25 | -6.06530 | 106.70779 | 3346 ft | 236 kts | 32° |
| 2026-04-29 08:26 | -6.05047 | 106.71650 | 3875 ft | 257 kts | 32° |
| 2026-04-29 08:26 | -6.03478 | 106.72574 | 4650 ft | 264 kts | 32° |
| 2026-04-29 08:26 | -6.01878 | 106.73515 | 5558 ft | 268 kts | 32° |
| 2026-04-29 08:26 | -6.00232 | 106.74419 | 6419 ft | 273 kts | 22° |
| 2026-04-29 08:27 | -5.98350 | 106.74706 | 7245 ft | 279 kts | 356° |
| 2026-04-29 08:27 | -5.96482 | 106.74115 | 8022 ft | 288 kts | 329° |
| 2026-04-29 08:27 | -5.95046 | 106.72737 | 8816 ft | 296 kts | 303° |
| 2026-04-29 08:27 | -5.94105 | 106.70873 | 9610 ft | 301 kts | 295° |
| 2026-04-29 08:28 | -5.93256 | 106.68943 | 10345 ft | 306 kts | 295° |
| 2026-04-29 08:28 | -5.92363 | 106.66917 | 10600 ft | 328 kts | 295° |
| 2026-04-29 08:28 | -5.91390 | 106.64763 | 10829 ft | 349 kts | 296° |
| 2026-04-29 08:28 | -5.90360 | 106.62526 | 11417 ft | 354 kts | 296° |
| 2026-04-29 08:29 | -5.89313 | 106.60271 | 12114 ft | 357 kts | 296° |
| 2026-04-29 08:29 | -5.88256 | 106.58000 | 12802 ft | 360 kts | 297° |
| 2026-04-29 08:29 | -5.87188 | 106.55711 | 13484 ft | 364 kts | 297° |
| 2026-04-29 08:29 | -5.86110 | 106.53399 | 14081 ft | 367 kts | 297° |
| 2026-04-29 08:30 | -5.85024 | 106.51068 | 14641 ft | 371 kts | 297° |
| 2026-04-29 08:30 | -5.82647 | 106.46443 | 15749 ft | 374 kts | 310° |
| 2026-04-29 08:30 | -5.80758 | 106.44669 | 16280 ft | 373 kts | 328° |
| 2026-04-29 08:31 | -5.78545 | 106.43281 | 16799 ft | 376 kts | 330° |
| 2026-04-29 08:31 | -5.76295 | 106.41909 | 17322 ft | 380 kts | 330° |
| 2026-04-29 08:31 | -5.74063 | 106.40540 | 17844 ft | 383 kts | 330° |
| 2026-04-29 08:31 | -5.71778 | 106.39135 | 18311 ft | 386 kts | 330° |
| 2026-04-29 08:32 | -5.69474 | 106.37717 | 18746 ft | 389 kts | 330° |
| 2026-04-29 08:32 | -5.67151 | 106.36287 | 19158 ft | 393 kts | 330° |
| 2026-04-29 08:32 | -5.64812 | 106.34848 | 19573 ft | 396 kts | 330° |
| 2026-04-29 08:32 | -5.62447 | 106.33392 | 19986 ft | 400 kts | 330° |
| 2026-04-29 08:33 | -5.60063 | 106.31925 | 20391 ft | 403 kts | 330° |
| 2026-04-29 08:33 | -5.57663 | 106.30449 | 20796 ft | 406 kts | 330° |
| 2026-04-29 08:33 | -5.55241 | 106.28959 | 21204 ft | 410 kts | 330° |
| 2026-04-29 08:33 | -5.52799 | 106.27457 | 21598 ft | 413 kts | 330° |
| 2026-04-29 08:34 | -5.50339 | 106.25945 | 21984 ft | 416 kts | 330° |
| 2026-04-29 08:34 | -5.47862 | 106.24422 | 22383 ft | 419 kts | 329° |
| 2026-04-29 08:34 | -5.45365 | 106.22886 | 22760 ft | 422 kts | 329° |
| 2026-04-29 08:34 | -5.42887 | 106.21363 | 23115 ft | 425 kts | 329° |
| 2026-04-29 08:35 | -5.40353 | 106.19806 | 23478 ft | 428 kts | 329° |
| 2026-04-29 08:35 | -5.37809 | 106.18243 | 23818 ft | 430 kts | 329° |
| 2026-04-29 08:35 | -5.35253 | 106.16673 | 24158 ft | 431 kts | 329° |
| 2026-04-29 08:35 | -5.32687 | 106.15096 | 24491 ft | 433 kts | 329° |
| 2026-04-29 08:36 | -5.30108 | 106.13512 | 24804 ft | 435 kts | 329° |
| 2026-04-29 08:36 | -5.27519 | 106.11922 | 25111 ft | 437 kts | 329° |
| 2026-04-29 08:36 | -5.24917 | 106.10324 | 25419 ft | 439 kts | 329° |
| 2026-04-29 08:36 | -5.22303 | 106.08719 | 25716 ft | 441 kts | 329° |
| 2026-04-29 08:37 | -5.19676 | 106.07107 | 26016 ft | 443 kts | 329° |
| 2026-04-29 08:37 | -5.17038 | 106.05487 | 26305 ft | 445 kts | 329° |
| 2026-04-29 08:37 | -5.14390 | 106.03862 | 26595 ft | 447 kts | 329° |
| 2026-04-29 08:37 | -5.11725 | 106.02226 | 26859 ft | 449 kts | 329° |
| 2026-04-29 08:38 | -5.09055 | 106.00587 | 27129 ft | 451 kts | 329° |
| 2026-04-29 08:38 | -5.06372 | 105.98941 | 27392 ft | 453 kts | 329° |
| 2026-04-29 08:38 | -5.03668 | 105.97282 | 27637 ft | 456 kts | 329° |
| 2026-04-29 08:38 | -5.00960 | 105.95621 | 27909 ft | 457 kts | 329° |
| 2026-04-29 08:39 | -4.98280 | 105.93976 | 28178 ft | 458 kts | 329° |
| 2026-04-29 08:39 | -4.95519 | 105.92283 | 28409 ft | 461 kts | 329° |
| 2026-04-29 08:39 | -4.92816 | 105.90626 | 28639 ft | 462 kts | 329° |
| 2026-04-29 08:39 | -4.90060 | 105.88936 | 28885 ft | 464 kts | 329° |
| 2026-04-29 08:40 | -4.87299 | 105.87243 | 29110 ft | 466 kts | 329° |
| 2026-04-29 08:40 | -4.84523 | 105.85541 | 29348 ft | 468 kts | 329° |
| 2026-04-29 08:40 | -4.81746 | 105.83838 | 29598 ft | 469 kts | 329° |
| 2026-04-29 08:40 | -4.78961 | 105.82130 | 29830 ft | 470 kts | 329° |
| 2026-04-29 08:41 | -4.76160 | 105.80414 | 30036 ft | 472 kts | 329° |
| 2026-04-29 08:41 | -4.73352 | 105.78693 | 30215 ft | 474 kts | 329° |
| 2026-04-29 08:41 | -4.70535 | 105.76967 | 30431 ft | 475 kts | 329° |
| 2026-04-29 08:41 | -4.67706 | 105.75233 | 30650 ft | 477 kts | 329° |
| 2026-04-29 08:42 | -4.64869 | 105.73494 | 30845 ft | 478 kts | 329° |
| 2026-04-29 08:42 | -4.62023 | 105.71751 | 31113 ft | 479 kts | 329° |
| 2026-04-29 08:42 | -4.59215 | 105.70030 | 31402 ft | 478 kts | 329° |
| 2026-04-29 08:42 | -4.56381 | 105.68294 | 31695 ft | 477 kts | 329° |
| 2026-04-29 08:43 | -4.53553 | 105.66562 | 31995 ft | 476 kts | 329° |
| 2026-04-29 08:43 | -4.50727 | 105.64831 | 32285 ft | 476 kts | 329° |
| 2026-04-29 08:43 | -4.47897 | 105.63098 | 32532 ft | 476 kts | 329° |
| 2026-04-29 08:43 | -4.45074 | 105.61369 | 32799 ft | 475 kts | 329° |
| 2026-04-29 08:44 | -4.42253 | 105.59642 | 33085 ft | 474 kts | 329° |
| 2026-04-29 08:44 | -4.39432 | 105.57914 | 33339 ft | 474 kts | 329° |
| 2026-04-29 08:44 | -4.36623 | 105.56194 | 33605 ft | 473 kts | 329° |
| 2026-04-29 08:44 | -4.33815 | 105.54475 | 33852 ft | 472 kts | 329° |
| 2026-04-29 08:45 | -4.31016 | 105.52762 | 34074 ft | 471 kts | 329° |
| 2026-04-29 08:45 | -4.28221 | 105.51051 | 34284 ft | 471 kts | 329° |
| 2026-04-29 08:45 | -4.25445 | 105.49351 | 34504 ft | 470 kts | 329° |
| 2026-04-29 08:45 | -4.22639 | 105.47634 | 34712 ft | 469 kts | 329° |
| 2026-04-29 08:46 | -4.19892 | 105.45954 | 34906 ft | 469 kts | 329° |
| 2026-04-29 08:46 | -4.17106 | 105.44249 | 35109 ft | 468 kts | 329° |
| 2026-04-29 08:46 | -4.14327 | 105.42550 | 35318 ft | 468 kts | 329° |
| 2026-04-29 08:46 | -4.11548 | 105.40850 | 35510 ft | 467 kts | 329° |
| 2026-04-29 08:47 | -4.08772 | 105.39152 | 35702 ft | 467 kts | 329° |
| 2026-04-29 08:47 | -4.05999 | 105.37456 | 35827 ft | 467 kts | 329° |
| 2026-04-29 08:47 | -4.03232 | 105.35764 | 35816 ft | 465 kts | 329° |
| 2026-04-29 08:48 | -3.97708 | 105.32386 | 35817 ft | 465 kts | 329° |
| 2026-04-29 08:48 | -3.92178 | 105.29005 | 35816 ft | 465 kts | 329° |
| 2026-04-29 08:49 | -3.86648 | 105.25626 | 35815 ft | 465 kts | 329° |
| 2026-04-29 08:49 | -3.81153 | 105.22267 | 35816 ft | 466 kts | 329° |
| 2026-04-29 08:50 | -3.75616 | 105.18883 | 35815 ft | 466 kts | 329° |
| 2026-04-29 08:50 | -3.70084 | 105.15504 | 35816 ft | 466 kts | 329° |
| 2026-04-29 08:51 | -3.64542 | 105.12118 | 35819 ft | 466 kts | 329° |
| 2026-04-29 08:51 | -3.59002 | 105.08734 | 35818 ft | 466 kts | 329° |
| 2026-04-29 08:52 | -3.53456 | 105.05347 | 35820 ft | 467 kts | 329° |
| 2026-04-29 08:52 | -3.47916 | 105.01964 | 35820 ft | 467 kts | 329° |
| 2026-04-29 08:53 | -3.42373 | 104.98580 | 35818 ft | 467 kts | 329° |
| 2026-04-29 08:53 | -3.36853 | 104.95211 | 35817 ft | 467 kts | 329° |
| 2026-04-29 08:54 | -3.31307 | 104.91826 | 35817 ft | 467 kts | 329° |
| 2026-04-29 08:54 | -3.25754 | 104.88437 | 35820 ft | 467 kts | 329° |
| 2026-04-29 08:55 | -3.20209 | 104.85053 | 35820 ft | 467 kts | 329° |
| 2026-04-29 08:55 | -3.14664 | 104.81670 | 35817 ft | 467 kts | 329° |
| 2026-04-29 08:56 | -3.09120 | 104.78288 | 35814 ft | 467 kts | 329° |
| 2026-04-29 08:56 | -3.03573 | 104.74905 | 35807 ft | 466 kts | 329° |
| 2026-04-29 08:57 | -2.98026 | 104.71522 | 35801 ft | 466 kts | 329° |
| 2026-04-29 08:57 | -2.92516 | 104.68158 | 35800 ft | 466 kts | 329° |
| 2026-04-29 08:58 | -2.87232 | 104.64389 | 35797 ft | 467 kts | 321° |
| 2026-04-29 08:58 | -2.82417 | 104.60018 | 35803 ft | 468 kts | 316° |
| 2026-04-29 08:59 | -2.78514 | 104.56201 | 35804 ft | 468 kts | 316° |
| 2026-04-29 08:59 | -2.73880 | 104.51689 | 35809 ft | 468 kts | 316° |
| 2026-04-29 09:00 | -2.69216 | 104.47145 | 35821 ft | 468 kts | 316° |
| 2026-04-29 09:00 | -2.64541 | 104.42588 | 35823 ft | 469 kts | 316° |
| 2026-04-29 09:01 | -2.59871 | 104.38036 | 35826 ft | 469 kts | 316° |
| 2026-04-29 09:01 | -2.55194 | 104.33476 | 35826 ft | 469 kts | 316° |
| 2026-04-29 09:02 | -2.50516 | 104.28917 | 35825 ft | 469 kts | 316° |
| 2026-04-29 09:02 | -2.45871 | 104.24391 | 35824 ft | 469 kts | 316° |
| 2026-04-29 09:03 | -2.41186 | 104.19826 | 35826 ft | 470 kts | 316° |
| 2026-04-29 09:03 | -2.36506 | 104.15266 | 35828 ft | 470 kts | 316° |
| 2026-04-29 09:04 | -2.31818 | 104.10698 | 35830 ft | 470 kts | 316° |
| 2026-04-29 09:04 | -2.27125 | 104.06127 | 35831 ft | 471 kts | 316° |
| 2026-04-29 09:05 | -2.22435 | 104.01560 | 35840 ft | 471 kts | 316° |
| 2026-04-29 09:05 | -2.17770 | 103.97016 | 35836 ft | 471 kts | 316° |
| 2026-04-29 09:06 | -2.13069 | 103.92438 | 35838 ft | 471 kts | 316° |
| 2026-04-29 09:06 | -2.08369 | 103.87861 | 35837 ft | 471 kts | 316° |
| 2026-04-29 09:07 | -2.03667 | 103.83283 | 35840 ft | 471 kts | 316° |
| 2026-04-29 09:07 | -1.98973 | 103.78713 | 35840 ft | 471 kts | 316° |
| 2026-04-29 09:08 | -1.94273 | 103.74137 | 35839 ft | 471 kts | 316° |
| 2026-04-29 09:08 | -1.89596 | 103.69585 | 35840 ft | 471 kts | 316° |
| 2026-04-29 09:09 | -1.84903 | 103.65016 | 35839 ft | 470 kts | 316° |
| 2026-04-29 09:09 | -1.80211 | 103.60449 | 35838 ft | 470 kts | 316° |
| 2026-04-29 09:10 | -1.75523 | 103.55887 | 35840 ft | 470 kts | 316° |
| 2026-04-29 09:10 | -1.70841 | 103.51330 | 35836 ft | 470 kts | 316° |
| 2026-04-29 09:11 | -1.66164 | 103.46779 | 35834 ft | 469 kts | 316° |
| 2026-04-29 09:11 | -1.61483 | 103.42225 | 35832 ft | 469 kts | 316° |
| 2026-04-29 09:12 | -1.56836 | 103.37704 | 35834 ft | 469 kts | 316° |
| 2026-04-29 09:12 | -1.52156 | 103.33151 | 35832 ft | 469 kts | 316° |
| 2026-04-29 09:13 | -1.47477 | 103.28599 | 35836 ft | 469 kts | 316° |
| 2026-04-29 09:13 | -1.42803 | 103.24052 | 35835 ft | 469 kts | 316° |
| 2026-04-29 09:14 | -1.38124 | 103.19502 | 35840 ft | 469 kts | 316° |
| 2026-04-29 09:14 | -1.33447 | 103.14952 | 35835 ft | 469 kts | 316° |
| 2026-04-29 09:15 | -1.28803 | 103.10436 | 35837 ft | 469 kts | 316° |
| 2026-04-29 09:15 | -1.24129 | 103.05891 | 35837 ft | 469 kts | 316° |
| 2026-04-29 09:16 | -1.19456 | 103.01347 | 35840 ft | 469 kts | 316° |
| 2026-04-29 09:16 | -1.14781 | 102.96801 | 35839 ft | 469 kts | 316° |
| 2026-04-29 09:17 | -1.10102 | 102.92251 | 35834 ft | 469 kts | 316° |
| 2026-04-29 09:17 | -1.05420 | 102.87700 | 35837 ft | 469 kts | 316° |
| 2026-04-29 09:18 | -1.00766 | 102.83185 | 35835 ft | 469 kts | 316° |
| 2026-04-29 09:18 | -0.96082 | 102.78642 | 35834 ft | 469 kts | 317° |
| 2026-04-29 09:19 | -0.91392 | 102.74092 | 35834 ft | 469 kts | 316° |
| 2026-04-29 09:19 | -0.86712 | 102.69551 | 35831 ft | 469 kts | 316° |
| 2026-04-29 09:20 | -0.82023 | 102.65002 | 35826 ft | 470 kts | 317° |
| 2026-04-29 09:20 | -0.77334 | 102.60452 | 35828 ft | 470 kts | 317° |
| 2026-04-29 09:21 | -0.72669 | 102.55927 | 35831 ft | 470 kts | 317° |
| 2026-04-29 09:21 | -0.67976 | 102.51375 | 35827 ft | 470 kts | 317° |
| 2026-04-29 09:22 | -0.63282 | 102.46821 | 35827 ft | 470 kts | 317° |
| 2026-04-29 09:22 | -0.58579 | 102.42260 | 35826 ft | 471 kts | 317° |
| 2026-04-29 09:23 | -0.53879 | 102.37700 | 35825 ft | 471 kts | 317° |
| 2026-04-29 09:23 | -0.49177 | 102.33140 | 35826 ft | 471 kts | 317° |
| 2026-04-29 09:24 | -0.44478 | 102.28583 | 35822 ft | 471 kts | 317° |
| 2026-04-29 09:24 | -0.39775 | 102.24021 | 35826 ft | 471 kts | 317° |
| 2026-04-29 09:25 | -0.35076 | 102.19463 | 35821 ft | 471 kts | 317° |
| 2026-04-29 09:25 | -0.30400 | 102.14928 | 35817 ft | 471 kts | 317° |
| 2026-04-29 09:26 | -0.25700 | 102.10369 | 35815 ft | 471 kts | 317° |
| 2026-04-29 09:26 | -0.21001 | 102.05812 | 35816 ft | 470 kts | 317° |
| 2026-04-29 09:27 | -0.16304 | 102.01256 | 35813 ft | 470 kts | 317° |
| 2026-04-29 09:27 | -0.11610 | 101.96703 | 35813 ft | 470 kts | 317° |
| 2026-04-29 09:28 | -0.06911 | 101.92146 | 35819 ft | 471 kts | 317° |
| 2026-04-29 09:28 | -0.02202 | 101.87580 | 35814 ft | 471 kts | 317° |
| 2026-04-29 09:29 | 0.02502 | 101.83018 | 35815 ft | 471 kts | 317° |
| 2026-04-29 09:29 | 0.09548 | 101.76184 | 35807 ft | 470 kts | 317° |
| 2026-04-29 09:30 | 0.14210 | 101.71662 | 35796 ft | 470 kts | 317° |
| 2026-04-29 09:30 | 0.18900 | 101.67114 | 35795 ft | 469 kts | 317° |
| 2026-04-29 09:31 | 0.23582 | 101.62574 | 35792 ft | 469 kts | 317° |
| 2026-04-29 09:31 | 0.28269 | 101.58029 | 35793 ft | 469 kts | 317° |
| 2026-04-29 09:32 | 0.32956 | 101.53483 | 35793 ft | 469 kts | 317° |
| 2026-04-29 09:32 | 0.37665 | 101.48975 | 35791 ft | 468 kts | 322° |
| 2026-04-29 09:33 | 0.43193 | 101.45769 | 35790 ft | 463 kts | 342° |
| 2026-04-29 09:33 | 0.46308 | 101.44941 | 35787 ft | 460 kts | 353° |
| 2026-04-29 09:33 | 0.49486 | 101.44671 | 35783 ft | 457 kts | 3° |
| 2026-04-29 09:34 | 0.55832 | 101.45084 | 35787 ft | 457 kts | 6° |
| 2026-04-29 09:34 | 0.62188 | 101.45519 | 35787 ft | 458 kts | 6° |
| 2026-04-29 09:35 | 0.68546 | 101.45950 | 35792 ft | 458 kts | 5° |
| 2026-04-29 09:35 | 0.74923 | 101.46382 | 35796 ft | 459 kts | 5° |
| 2026-04-29 09:36 | 0.81310 | 101.46816 | 35797 ft | 460 kts | 5° |
| 2026-04-29 09:36 | 0.87708 | 101.47251 | 35805 ft | 461 kts | 5° |
| 2026-04-29 09:37 | 0.94080 | 101.47685 | 35807 ft | 462 kts | 5° |
| 2026-04-29 09:37 | 1.00492 | 101.48122 | 35807 ft | 462 kts | 5° |
| 2026-04-29 09:38 | 1.06919 | 101.48560 | 35811 ft | 462 kts | 5° |
| 2026-04-29 09:38 | 1.13329 | 101.48997 | 35808 ft | 462 kts | 5° |
| 2026-04-29 09:39 | 1.19759 | 101.49436 | 35807 ft | 462 kts | 5° |
| 2026-04-29 09:39 | 1.26171 | 101.49874 | 35803 ft | 462 kts | 5° |
| 2026-04-29 09:40 | 1.32582 | 101.50311 | 35807 ft | 461 kts | 5° |
| 2026-04-29 09:40 | 1.38950 | 101.50746 | 35806 ft | 461 kts | 5° |
| 2026-04-29 09:41 | 1.45353 | 101.51183 | 35806 ft | 461 kts | 5° |
| 2026-04-29 09:41 | 1.51753 | 101.51620 | 35804 ft | 460 kts | 5° |
| 2026-04-29 09:42 | 1.58132 | 101.52055 | 35804 ft | 460 kts | 5° |
| 2026-04-29 09:42 | 1.64494 | 101.52490 | 35807 ft | 460 kts | 5° |
| 2026-04-29 09:43 | 1.70884 | 101.52926 | 35805 ft | 459 kts | 5° |
| 2026-04-29 09:43 | 1.77265 | 101.53362 | 35801 ft | 459 kts | 5° |
| 2026-04-29 09:44 | 1.82558 | 101.53724 | 35803 ft | 459 kts | 5° |
| 2026-04-29 09:44 | 1.90010 | 101.54233 | 35804 ft | 459 kts | 5° |
| 2026-04-29 09:45 | 1.96381 | 101.54669 | 35805 ft | 458 kts | 5° |
| 2026-04-29 09:45 | 2.02745 | 101.55104 | 35809 ft | 458 kts | 5° |
| 2026-04-29 09:46 | 2.09084 | 101.55537 | 35812 ft | 458 kts | 5° |
| 2026-04-29 09:46 | 2.14380 | 101.55899 | 35812 ft | 458 kts | 5° |
| 2026-04-29 09:47 | 2.21707 | 101.56950 | 35820 ft | 457 kts | 14° |
| 2026-04-29 09:47 | 2.26824 | 101.58395 | 35823 ft | 456 kts | 20° |
| 2026-04-29 09:48 | 2.32835 | 101.60437 | 35824 ft | 456 kts | 19° |
| 2026-04-29 09:48 | 2.38813 | 101.62450 | 35826 ft | 456 kts | 19° |
| 2026-04-29 09:49 | 2.44822 | 101.64476 | 35823 ft | 456 kts | 19° |
| 2026-04-29 09:49 | 2.50839 | 101.66507 | 35817 ft | 455 kts | 19° |
| 2026-04-29 09:50 | 2.56843 | 101.68534 | 35812 ft | 455 kts | 19° |
| 2026-04-29 09:50 | 2.62843 | 101.70560 | 35808 ft | 455 kts | 19° |
| 2026-04-29 09:51 | 2.68876 | 101.72486 | 35806 ft | 455 kts | 14° |
| 2026-04-29 09:51 | 2.75165 | 101.73172 | 35801 ft | 456 kts | 360° |
| 2026-04-29 09:52 | 2.81481 | 101.72446 | 35801 ft | 457 kts | 352° |
| 2026-04-29 09:52 | 2.87732 | 101.71504 | 35805 ft | 457 kts | 353° |
| 2026-04-29 09:53 | 2.94030 | 101.70564 | 35805 ft | 457 kts | 352° |
| 2026-04-29 09:53 | 3.00314 | 101.69624 | 35818 ft | 457 kts | 352° |
| 2026-04-29 09:54 | 3.06615 | 101.68680 | 35824 ft | 457 kts | 352° |
| 2026-04-29 09:54 | 3.12903 | 101.67739 | 35823 ft | 457 kts | 352° |
| 2026-04-29 09:55 | 3.19196 | 101.66797 | 35825 ft | 457 kts | 352° |
| 2026-04-29 09:55 | 3.25453 | 101.65859 | 35822 ft | 457 kts | 352° |
| 2026-04-29 09:56 | 3.31700 | 101.64664 | 35821 ft | 458 kts | 346° |
| 2026-04-29 09:56 | 3.37761 | 101.62616 | 35824 ft | 459 kts | 338° |
| 2026-04-29 09:57 | 3.43581 | 101.60025 | 35826 ft | 460 kts | 337° |
| 2026-04-29 09:57 | 3.49435 | 101.57426 | 35827 ft | 460 kts | 337° |
| 2026-04-29 09:58 | 3.55292 | 101.54823 | 35827 ft | 460 kts | 337° |
| 2026-04-29 09:58 | 3.61141 | 101.52222 | 35833 ft | 460 kts | 337° |
| 2026-04-29 09:59 | 3.66993 | 101.49619 | 35838 ft | 460 kts | 337° |
| 2026-04-29 09:59 | 3.72840 | 101.47017 | 35837 ft | 460 kts | 337° |
| 2026-04-29 10:00 | 3.78687 | 101.44415 | 35835 ft | 459 kts | 337° |
| 2026-04-29 10:00 | 3.84487 | 101.41833 | 35836 ft | 459 kts | 337° |
| 2026-04-29 10:01 | 3.90329 | 101.39234 | 35836 ft | 459 kts | 337° |
| 2026-04-29 10:01 | 3.96159 | 101.36641 | 35837 ft | 458 kts | 337° |
| 2026-04-29 10:02 | 4.01992 | 101.34046 | 35835 ft | 458 kts | 337° |
| 2026-04-29 10:02 | 4.07807 | 101.31459 | 35837 ft | 457 kts | 337° |
| 2026-04-29 10:03 | 4.13630 | 101.28867 | 35838 ft | 457 kts | 338° |
| 2026-04-29 10:03 | 4.19391 | 101.26304 | 35841 ft | 456 kts | 338° |
| 2026-04-29 10:04 | 4.25198 | 101.23719 | 35837 ft | 456 kts | 338° |
| 2026-04-29 10:04 | 4.30995 | 101.21138 | 35826 ft | 456 kts | 338° |
| 2026-04-29 10:05 | 4.36796 | 101.18555 | 35820 ft | 456 kts | 338° |
| 2026-04-29 10:05 | 4.42593 | 101.15973 | 35807 ft | 456 kts | 338° |
| 2026-04-29 10:06 | 4.48356 | 101.13406 | 35798 ft | 456 kts | 338° |
| 2026-04-29 10:06 | 4.54149 | 101.10825 | 35800 ft | 455 kts | 338° |
| 2026-04-29 10:07 | 4.59952 | 101.08254 | 35797 ft | 455 kts | 338° |
| 2026-04-29 10:07 | 4.65774 | 101.05757 | 35802 ft | 455 kts | 338° |
| 2026-04-29 10:08 | 4.71557 | 101.03276 | 35813 ft | 454 kts | 338° |
| 2026-04-29 10:08 | 4.77373 | 101.00772 | 35818 ft | 454 kts | 338° |
| 2026-04-29 10:09 | 4.83186 | 100.98266 | 35827 ft | 454 kts | 338° |
| 2026-04-29 10:09 | 4.88990 | 100.95763 | 35833 ft | 454 kts | 338° |
| 2026-04-29 10:10 | 4.94772 | 100.93269 | 35833 ft | 454 kts | 338° |
| 2026-04-29 10:10 | 5.00565 | 100.90770 | 35839 ft | 454 kts | 338° |
| 2026-04-29 10:11 | 5.06377 | 100.88259 | 35836 ft | 454 kts | 338° |
| 2026-04-29 10:11 | 5.12179 | 100.85751 | 35836 ft | 454 kts | 338° |
| 2026-04-29 10:12 | 5.17975 | 100.83246 | 35836 ft | 453 kts | 338° |
| 2026-04-29 10:12 | 5.23730 | 100.80758 | 35830 ft | 453 kts | 338° |
| 2026-04-29 10:13 | 5.29522 | 100.78254 | 35826 ft | 453 kts | 338° |
| 2026-04-29 10:13 | 5.35301 | 100.75734 | 35825 ft | 453 kts | 336° |
| 2026-04-29 10:14 | 5.40905 | 100.72830 | 35816 ft | 453 kts | 332° |
| 2026-04-29 10:14 | 5.46399 | 100.69713 | 35806 ft | 453 kts | 332° |
| 2026-04-29 10:15 | 5.51899 | 100.66608 | 35801 ft | 453 kts | 332° |
| 2026-04-29 10:15 | 5.57362 | 100.63521 | 35798 ft | 452 kts | 332° |
| 2026-04-29 10:16 | 5.61924 | 100.60942 | 35800 ft | 452 kts | 332° |
| 2026-04-29 10:16 | 5.68339 | 100.57313 | 35802 ft | 452 kts | 332° |
| 2026-04-29 10:17 | 5.73818 | 100.54214 | 35810 ft | 452 kts | 331° |
| 2026-04-29 10:17 | 5.79290 | 100.51115 | 35819 ft | 452 kts | 331° |
| 2026-04-29 10:18 | 5.84694 | 100.47888 | 35822 ft | 452 kts | 329° |
| 2026-04-29 10:18 | 5.90074 | 100.44627 | 35817 ft | 451 kts | 329° |
| 2026-04-29 10:19 | 5.95429 | 100.41405 | 35810 ft | 451 kts | 330° |
| 2026-04-29 10:19 | 6.00814 | 100.38172 | 35806 ft | 451 kts | 330° |
| 2026-04-29 10:20 | 6.06211 | 100.34932 | 35801 ft | 451 kts | 330° |
| 2026-04-29 10:20 | 6.11599 | 100.31696 | 35799 ft | 451 kts | 329° |
| 2026-04-29 10:21 | 6.16990 | 100.28458 | 35799 ft | 451 kts | 329° |
| 2026-04-29 10:21 | 6.22349 | 100.25238 | 35804 ft | 451 kts | 329° |
| 2026-04-29 10:22 | 6.27745 | 100.21995 | 35806 ft | 451 kts | 329° |
| 2026-04-29 10:22 | 6.33138 | 100.18754 | 35809 ft | 451 kts | 329° |
| 2026-04-29 10:23 | 6.38526 | 100.15508 | 35814 ft | 451 kts | 328° |
| 2026-04-29 10:23 | 6.43603 | 100.11782 | 35818 ft | 452 kts | 320° |
| 2026-04-29 10:24 | 6.48062 | 100.07356 | 35820 ft | 453 kts | 313° |
| 2026-04-29 10:24 | 6.52298 | 100.02660 | 35817 ft | 453 kts | 313° |
| 2026-04-29 10:25 | 6.56546 | 99.97976 | 35813 ft | 453 kts | 313° |
| 2026-04-29 10:25 | 6.60796 | 99.93285 | 35816 ft | 453 kts | 313° |
| 2026-04-29 10:26 | 6.65053 | 99.88583 | 35817 ft | 454 kts | 313° |
| 2026-04-29 10:26 | 6.69303 | 99.83888 | 35821 ft | 454 kts | 313° |
| 2026-04-29 10:27 | 6.75677 | 99.76843 | 35824 ft | 454 kts | 313° |
| 2026-04-29 10:28 | 6.79931 | 99.72139 | 35829 ft | 454 kts | 313° |
| 2026-04-29 10:28 | 6.84163 | 99.67458 | 35826 ft | 454 kts | 313° |
| 2026-04-29 10:28 | 6.86282 | 99.65114 | 35711 ft | 451 kts | 313° |
| 2026-04-29 10:29 | 6.88397 | 99.62774 | 35165 ft | 452 kts | 313° |
| 2026-04-29 10:29 | 6.90522 | 99.60423 | 34294 ft | 457 kts | 313° |
| 2026-04-29 10:29 | 6.92684 | 99.58031 | 33117 ft | 466 kts | 314° |
| 2026-04-29 10:29 | 6.94888 | 99.55592 | 31800 ft | 475 kts | 314° |
| 2026-04-29 10:30 | 6.97129 | 99.53111 | 30609 ft | 482 kts | 314° |
| 2026-04-29 10:30 | 6.99394 | 99.50604 | 29499 ft | 485 kts | 314° |
| 2026-04-29 10:30 | 7.01663 | 99.48107 | 28690 ft | 479 kts | 314° |
| 2026-04-29 10:30 | 7.03903 | 99.45712 | 28184 ft | 468 kts | 315° |
| 2026-04-29 10:31 | 7.06120 | 99.43367 | 27905 ft | 453 kts | 315° |
| 2026-04-29 10:31 | 7.08265 | 99.41095 | 27421 ft | 444 kts | 315° |
| 2026-04-29 10:31 | 7.10374 | 99.38858 | 26880 ft | 437 kts | 315° |
| 2026-04-29 10:31 | 7.12451 | 99.36650 | 26344 ft | 431 kts | 315° |
| 2026-04-29 10:32 | 7.14495 | 99.34474 | 25820 ft | 425 kts | 315° |
| 2026-04-29 10:32 | 7.16514 | 99.32322 | 25298 ft | 420 kts | 315° |
| 2026-04-29 10:32 | 7.18487 | 99.30218 | 24786 ft | 415 kts | 315° |
| 2026-04-29 10:32 | 7.20460 | 99.28114 | 24272 ft | 411 kts | 315° |
| 2026-04-29 10:33 | 7.22411 | 99.26033 | 23765 ft | 407 kts | 315° |
| 2026-04-29 10:33 | 7.24354 | 99.23959 | 23226 ft | 404 kts | 314° |
| 2026-04-29 10:33 | 7.26275 | 99.21910 | 22692 ft | 399 kts | 314° |
| 2026-04-29 10:33 | 7.28168 | 99.19889 | 22176 ft | 393 kts | 314° |
| 2026-04-29 10:34 | 7.30037 | 99.17894 | 21699 ft | 390 kts | 314° |
| 2026-04-29 10:34 | 7.31894 | 99.15912 | 21204 ft | 389 kts | 314° |
| 2026-04-29 10:34 | 7.33743 | 99.13938 | 20708 ft | 385 kts | 314° |
| 2026-04-29 10:34 | 7.35571 | 99.11986 | 20223 ft | 381 kts | 314° |
| 2026-04-29 10:35 | 7.37382 | 99.10052 | 19732 ft | 379 kts | 314° |
| 2026-04-29 10:35 | 7.39165 | 99.08148 | 19258 ft | 377 kts | 314° |
| 2026-04-29 10:35 | 7.40956 | 99.06234 | 18771 ft | 374 kts | 314° |
| 2026-04-29 10:35 | 7.42734 | 99.04334 | 18292 ft | 371 kts | 314° |
| 2026-04-29 10:36 | 7.44517 | 99.02430 | 17957 ft | 382 kts | 314° |
| 2026-04-29 10:36 | 7.46378 | 99.00443 | 17448 ft | 396 kts | 314° |
| 2026-04-29 10:36 | 7.47635 | 98.99099 | 17105 ft | 399 kts | 314° |
| 2026-04-29 10:36 | 7.50176 | 98.96382 | 16408 ft | 396 kts | 314° |
| 2026-04-29 10:37 | 7.52054 | 98.94373 | 15896 ft | 390 kts | 314° |
| 2026-04-29 10:37 | 7.53903 | 98.92394 | 15390 ft | 384 kts | 314° |
| 2026-04-29 10:37 | 7.55112 | 98.91100 | 15061 ft | 380 kts | 314° |
| 2026-04-29 10:37 | 7.56910 | 98.89177 | 14565 ft | 374 kts | 314° |
| 2026-04-29 10:38 | 7.59277 | 98.86645 | 13913 ft | 368 kts | 314° |
| 2026-04-29 10:38 | 7.60435 | 98.85406 | 13600 ft | 365 kts | 314° |
| 2026-04-29 10:38 | 7.62717 | 98.82963 | 12950 ft | 357 kts | 314° |
| 2026-04-29 10:38 | 7.63861 | 98.81738 | 12636 ft | 353 kts | 314° |
| 2026-04-29 10:39 | 7.65532 | 98.79950 | 12181 ft | 348 kts | 314° |
| 2026-04-29 10:39 | 7.67180 | 98.78187 | 11731 ft | 343 kts | 314° |
| 2026-04-29 10:39 | 7.68802 | 98.76449 | 11287 ft | 338 kts | 314° |
| 2026-04-29 10:39 | 7.70382 | 98.74758 | 10851 ft | 334 kts | 314° |
| 2026-04-29 10:40 | 7.71966 | 98.73062 | 10431 ft | 329 kts | 314° |
| 2026-04-29 10:40 | 7.73497 | 98.71411 | 10292 ft | 315 kts | 314° |
| 2026-04-29 10:40 | 7.74960 | 98.69829 | 10118 ft | 303 kts | 314° |
| 2026-04-29 10:40 | 7.76397 | 98.68283 | 9914 ft | 302 kts | 316° |
| 2026-04-29 10:41 | 7.77996 | 98.66917 | 9798 ft | 301 kts | 327° |
| 2026-04-29 10:41 | 7.79755 | 98.65761 | 9476 ft | 303 kts | 328° |
| 2026-04-29 10:41 | 7.81525 | 98.64602 | 9083 ft | 302 kts | 328° |
| 2026-04-29 10:41 | 7.83277 | 98.63450 | 8698 ft | 299 kts | 328° |
| 2026-04-29 10:42 | 7.85007 | 98.62309 | 8322 ft | 295 kts | 328° |
| 2026-04-29 10:42 | 7.86714 | 98.61182 | 7939 ft | 292 kts | 328° |
| 2026-04-29 10:42 | 7.88382 | 98.60080 | 7577 ft | 288 kts | 328° |
| 2026-04-29 10:42 | 7.90039 | 98.58984 | 7359 ft | 279 kts | 328° |
| 2026-04-29 10:43 | 7.91692 | 98.58064 | 7236 ft | 264 kts | 341° |
| 2026-04-29 10:43 | 7.93455 | 98.57634 | 6975 ft | 261 kts | 356° |
| 2026-04-29 10:43 | 7.95274 | 98.57481 | 6610 ft | 263 kts | 357° |
| 2026-04-29 10:43 | 7.97099 | 98.57320 | 6254 ft | 263 kts | 356° |
| 2026-04-29 10:44 | 7.98916 | 98.57152 | 5886 ft | 261 kts | 356° |
| 2026-04-29 10:44 | 8.00722 | 98.56982 | 5537 ft | 260 kts | 356° |
| 2026-04-29 10:44 | 8.02512 | 98.56798 | 5171 ft | 258 kts | 352° |
| 2026-04-29 10:44 | 8.04217 | 98.56254 | 4829 ft | 257 kts | 334° |
| 2026-04-29 10:45 | 8.05731 | 98.55298 | 4476 ft | 257 kts | 327° |
| 2026-04-29 10:45 | 8.07216 | 98.54302 | 4120 ft | 256 kts | 327° |
| 2026-04-29 10:45 | 8.08704 | 98.53319 | 3765 ft | 255 kts | 327° |
| 2026-04-29 10:45 | 8.10187 | 98.52341 | 3402 ft | 254 kts | 327° |
| 2026-04-29 10:46 | 8.11615 | 98.51307 | 3053 ft | 253 kts | 313° |
| 2026-04-29 10:46 | 8.12430 | 98.49771 | 2705 ft | 250 kts | 282° |
| 2026-04-29 10:46 | 8.12562 | 98.48029 | 2349 ft | 249 kts | 268° |
| 2026-04-29 10:46 | 8.12422 | 98.46349 | 2239 ft | 238 kts | 265° |
| 2026-04-29 10:47 | 8.12313 | 98.44731 | 2134 ft | 224 kts | 266° |
| 2026-04-29 10:47 | 8.12202 | 98.43206 | 2050 ft | 212 kts | 267° |
| 2026-04-29 10:47 | 8.12101 | 98.41776 | 1877 ft | 198 kts | 267° |
| 2026-04-29 10:47 | 8.12010 | 98.40421 | 1544 ft | 186 kts | 267° |
| 2026-04-29 10:48 | 8.11922 | 98.39171 | 1295 ft | 170 kts | 267° |
| 2026-04-29 10:48 | 8.11844 | 98.38050 | 1081 ft | 151 kts | 267° |
| 2026-04-29 10:48 | 8.11774 | 98.37051 | 900 ft | 136 kts | 268° |
| 2026-04-29 10:48 | 8.11716 | 98.36125 | 762 ft | 133 kts | 267° |
| 2026-04-29 10:49 | 8.11646 | 98.35155 | 633 ft | 138 kts | 266° |
| 2026-04-29 10:49 | 8.11561 | 98.34206 | 391 ft | 137 kts | 266° |
| 2026-04-29 10:49 | 8.11469 | 98.33238 | 203 ft | 136 kts | 265° |
| 2026-04-29 10:49 | 8.11380 | 98.32321 | 87 ft | 125 kts | 265° |
| 2026-04-29 10:50 | 8.11310 | 98.31561 | 59 ft | 84 kts | 265° |
| 2026-04-29 10:50 | 8.11269 | 98.31144 | 47 ft | 36 kts | 265° |
| 2026-04-29 10:50 | 8.11262 | 98.31065 | 42 ft | 0 kts | 264° |
| 2026-04-29 10:50 | 8.11259 | 98.31040 | 44 ft | 8 kts | 265° |
| 2026-04-29 10:51 | 8.11243 | 98.30951 | 39 ft | 17 kts | 240° |
| 2026-04-29 10:51 | 8.11163 | 98.30913 | 40 ft | 9 kts | 221° |
| 2026-04-29 10:51 | 8.11151 | 98.30847 | 40 ft | 12 kts | 264° |
| 2026-04-29 10:51 | 8.11141 | 98.30781 | 38 ft | 0 kts | 243° |
| 2026-04-29 10:52 | 8.11128 | 98.30775 | 38 ft | 3 kts | 199° |
| 2026-04-29 10:52 | 8.11095 | 98.30775 | 38 ft | 7 kts | 179° |
| 2026-04-29 10:52 | 8.11067 | 98.30745 | 38 ft | 6 kts | 268° |
| 2026-04-29 10:52 | 8.11063 | 98.30681 | 36 ft | 12 kts | 265° |
| 2026-04-29 10:53 | 8.11055 | 98.30583 | 34 ft | 16 kts | 266° |
| 2026-04-29 10:53 | 8.11022 | 98.30488 | 32 ft | 14 kts | 212° |
| 2026-04-29 10:53 | 8.10938 | 98.30462 | 32 ft | 11 kts | 193° |
| 2026-04-29 10:53 | 8.10919 | 98.30475 | 32 ft | 3 kts | 122° |
| 2026-04-29 10:54 | 8.10915 | 98.30498 | 32 ft | 5 kts | 103° |
| 2026-04-29 10:54 | 8.10904 | 98.30538 | 33 ft | 7 kts | 105° |
| 2026-04-29 10:54 | 8.10897 | 98.30565 | 34 ft | 2 kts | 104° |
| 2026-04-29 10:54 | 8.10897 | 98.30567 | 34 ft | 0 kts | 103° |